createdAt,value
2022-08-20T09:46:54.768Z,91.10
2022-08-20T09:49:21.548Z,91.20
2022-08-20T09:51:48.262Z,91.30
2022-08-20T09:54:14.975Z,90.60
2022-08-20T09:56:44.382Z,91.00
2022-08-20T09:59:11.146Z,90.10
2022-08-20T10:01:37.869Z,89.30
2022-08-20T10:04:04.763Z,89.60
2022-08-20T10:06:35.767Z,88.80
2022-08-20T10:09:04.032Z,88.40
2022-08-20T10:11:30.740Z,88.90
2022-08-20T10:13:57.536Z,87.40
2022-08-20T10:16:25.144Z,88.20
2022-08-20T10:18:51.941Z,87.70
2022-08-20T10:21:18.656Z,88.40
2022-08-20T10:23:45.466Z,87.50
2022-08-20T10:26:12.286Z,88.00
2022-08-20T10:28:39.014Z,87.50
2022-08-20T10:31:05.718Z,87.00
2022-08-20T10:33:34.699Z,87.80
2022-08-20T10:36:01.458Z,87.20
2022-08-20T10:38:28.226Z,86.90
2022-08-20T10:40:55.015Z,87.00
2022-08-20T10:43:21.743Z,86.10
2022-08-20T10:45:48.579Z,85.50
2022-08-20T10:48:19.551Z,85.70
2022-08-20T10:50:48.202Z,85.70
2022-08-20T10:53:14.959Z,86.20
2022-08-20T10:55:41.789Z,85.30
2022-08-20T10:58:08.756Z,85.40
2022-08-20T11:00:38.372Z,84.60
2022-08-20T11:03:05.128Z,85.30
2022-08-20T11:05:31.863Z,85.90
2022-08-20T11:07:59.887Z,85.80
2022-08-20T11:10:26.678Z,85.20
2022-08-20T11:12:53.377Z,85.30
2022-08-20T11:15:20.115Z,84.70
2022-08-20T11:17:46.878Z,84.60
2022-08-20T11:20:13.646Z,85.30
2022-08-20T11:22:40.334Z,84.70
2022-08-20T11:25:07.058Z,84.80
2022-08-20T11:27:33.843Z,85.00
2022-08-20T11:30:00.613Z,84.60
2022-08-20T11:32:27.365Z,85.10
2022-08-20T11:34:54.037Z,84.70
2022-08-20T11:37:20.769Z,85.00
2022-08-20T11:39:47.538Z,83.60
2022-08-20T11:42:14.262Z,83.30
2022-08-20T11:44:41.005Z,83.00
2022-08-20T11:47:07.783Z,83.90
2022-08-20T11:49:34.516Z,83.40
2022-08-20T11:52:01.247Z,81.60
2022-08-20T11:54:29.466Z,81.70
2022-08-20T11:56:59.586Z,82.90
2022-08-20T11:59:26.372Z,82.60
2022-08-20T12:02:03.128Z,82.50
2022-08-20T12:04:33.370Z,81.10
2022-08-20T12:07:01.765Z,79.70
2022-08-20T12:09:29.079Z,79.70
2022-08-20T12:11:55.801Z,79.90
2022-08-20T12:14:22.571Z,80.70
2022-08-20T12:16:49.268Z,80.70
2022-08-20T12:19:16.026Z,80.50
2022-08-20T12:21:42.710Z,80.20
2022-08-20T12:24:09.437Z,80.20
2022-08-20T12:26:36.182Z,80.40
2022-08-20T12:29:03.076Z,79.50
2022-08-20T12:31:29.813Z,78.60
2022-08-20T12:33:56.545Z,79.10
2022-08-20T12:36:23.275Z,79.50
2022-08-20T12:38:49.999Z,78.40
2022-08-20T12:41:16.805Z,78.00
2022-08-20T12:43:43.516Z,78.00
2022-08-20T12:46:10.264Z,78.30
2022-08-20T12:48:37.018Z,77.80
2022-08-20T12:51:03.761Z,76.60
2022-08-20T12:53:30.546Z,77.20
2022-08-20T12:55:57.272Z,76.40
2022-08-20T12:58:24.720Z,76.60
2022-08-20T13:00:51.543Z,76.80
2022-08-20T13:03:18.392Z,76.20
2022-08-20T13:05:45.341Z,76.00
2022-08-20T13:08:12.096Z,76.00
2022-08-20T13:10:42.472Z,76.40
2022-08-20T13:13:09.185Z,76.20
2022-08-20T13:15:35.949Z,76.80
2022-08-20T13:18:02.674Z,76.80
2022-08-20T13:20:31.629Z,76.00
2022-08-20T13:23:01.075Z,76.70
2022-08-20T13:25:27.863Z,75.90
2022-08-20T13:27:54.614Z,75.00
2022-08-20T13:30:21.341Z,75.00
2022-08-20T13:32:48.115Z,75.60
2022-08-20T13:35:14.906Z,75.00
2022-08-20T13:37:41.632Z,75.30
2022-08-20T13:40:09.005Z,74.90
2022-08-20T13:42:35.776Z,75.60
2022-08-20T13:45:02.609Z,75.30
2022-08-20T13:47:29.950Z,75.50
2022-08-20T13:49:56.995Z,74.90
2022-08-20T13:52:23.787Z,75.20
2022-08-20T13:54:50.717Z,74.70
2022-08-20T13:57:17.456Z,74.30
2022-08-20T13:59:44.309Z,75.00
2022-08-20T14:02:11.005Z,75.60
2022-08-20T14:04:37.718Z,74.60
2022-08-20T14:07:04.480Z,73.50
2022-08-20T14:09:31.191Z,73.20
2022-08-20T14:11:58.103Z,72.60
2022-08-20T14:14:24.895Z,73.20
2022-08-20T14:16:51.597Z,73.90
2022-08-20T14:19:18.845Z,72.40
2022-08-20T14:21:45.565Z,72.70
2022-08-20T14:24:12.266Z,72.40
2022-08-20T14:26:38.965Z,72.10
2022-08-20T14:29:05.796Z,72.80
2022-08-20T14:31:32.569Z,73.70
2022-08-20T14:33:59.309Z,73.10
2022-08-20T14:36:26.007Z,73.20
2022-08-20T14:38:52.776Z,73.60
2022-08-20T14:41:19.532Z,73.80
2022-08-20T14:43:46.264Z,72.70
2022-08-20T14:46:13.022Z,73.20
2022-08-20T14:48:39.724Z,72.80
2022-08-20T14:51:09.803Z,73.20
2022-08-20T14:53:40.516Z,73.70
2022-08-20T14:56:07.537Z,73.10
2022-08-20T14:58:34.243Z,73.20
2022-08-20T15:01:00.953Z,73.70
2022-08-20T15:03:30.562Z,73.20
2022-08-20T15:05:57.548Z,73.10
2022-08-20T15:08:28.385Z,73.70
2022-08-20T15:10:55.708Z,73.00
2022-08-20T15:13:22.395Z,73.00
2022-08-20T15:15:49.093Z,73.10
2022-08-20T15:18:15.831Z,72.90
2022-08-20T15:20:42.507Z,72.70
2022-08-20T15:23:09.270Z,73.00
2022-08-20T15:25:37.477Z,73.70
2022-08-20T15:28:04.825Z,73.50
2022-08-20T15:30:32.510Z,73.40
2022-08-20T15:32:59.518Z,73.50
2022-08-20T15:35:26.523Z,73.20
2022-08-20T15:37:54.599Z,73.20
2022-08-20T15:40:24.598Z,73.30
2022-08-20T15:42:54.517Z,73.20
2022-08-20T15:45:21.999Z,73.10
2022-08-20T15:47:49.097Z,73.20
2022-08-20T15:50:15.812Z,73.20
2022-08-20T15:52:42.515Z,73.50
2022-08-20T15:55:09.235Z,73.10
2022-08-20T15:57:35.971Z,72.90
2022-08-20T16:00:02.738Z,73.60
2022-08-20T16:02:30.886Z,73.00
2022-08-20T16:04:57.793Z,72.50
2022-08-20T16:07:24.667Z,72.50
2022-08-20T16:09:51.843Z,72.30
2022-08-20T16:12:18.639Z,72.80
2022-08-20T16:14:45.832Z,73.30
2022-08-20T16:17:12.632Z,72.90
2022-08-20T16:19:39.329Z,73.00
2022-08-20T16:22:06.291Z,73.00
2022-08-20T16:24:33.046Z,73.20
2022-08-20T16:27:01.282Z,74.50
2022-08-20T16:29:28.023Z,75.00
2022-08-20T16:31:54.856Z,75.40
2022-08-20T16:34:29.858Z,75.30
2022-08-20T16:37:03.634Z,75.20
2022-08-20T16:39:31.351Z,76.20
2022-08-20T16:42:05.864Z,77.00
2022-08-20T16:44:32.984Z,77.60
2022-08-20T16:46:59.704Z,78.00
2022-08-20T16:49:26.469Z,78.20
2022-08-20T16:51:53.231Z,76.50
2022-08-20T16:54:30.072Z,76.30
2022-08-20T16:56:57.784Z,75.90
2022-08-20T16:59:26.986Z,75.40
2022-08-20T17:01:54.187Z,73.50
2022-08-20T17:04:28.408Z,72.80
2022-08-20T17:06:55.149Z,70.30
2022-08-20T17:09:22.153Z,70.60
2022-08-20T17:11:50.953Z,70.20
2022-08-20T17:14:17.734Z,71.00
2022-08-20T17:16:44.425Z,70.40
2022-08-20T17:19:11.199Z,70.40
2022-08-20T17:21:38.339Z,71.10
2022-08-20T17:24:05.050Z,71.50
2022-08-20T17:26:31.800Z,71.80
2022-08-20T17:28:58.514Z,71.70
2022-08-20T17:31:25.227Z,72.10
2022-08-20T17:34:05.369Z,71.40
2022-08-20T17:36:34.320Z,71.30
2022-08-20T17:39:01.209Z,71.80
2022-08-20T17:41:27.925Z,71.80
2022-08-20T17:43:54.690Z,71.80
2022-08-20T17:46:21.469Z,71.60
2022-08-20T17:48:48.294Z,71.50
2022-08-20T17:51:15.001Z,71.90
2022-08-20T17:53:41.759Z,72.10
2022-08-20T17:56:08.481Z,71.40
2022-08-20T17:58:35.456Z,71.80
2022-08-20T18:01:02.215Z,72.00
2022-08-20T18:03:29.164Z,72.10
2022-08-20T18:05:55.893Z,72.20
2022-08-20T18:08:22.780Z,71.80
2022-08-20T18:10:49.644Z,71.80
2022-08-20T18:13:16.395Z,72.30
2022-08-20T18:15:43.115Z,73.10
2022-08-20T18:18:09.838Z,73.40
2022-08-20T18:20:37.734Z,74.10
2022-08-20T18:23:07.269Z,74.30
2022-08-20T18:25:36.968Z,74.50
2022-08-20T18:28:03.757Z,75.00
2022-08-20T18:30:31.383Z,75.50
2022-08-20T18:32:58.381Z,76.10
2022-08-20T18:35:25.153Z,76.60
2022-08-20T18:37:52.642Z,77.40
2022-08-20T18:40:19.488Z,78.10
2022-08-20T18:42:46.337Z,78.70
2022-08-20T18:45:13.113Z,79.40
2022-08-20T18:47:40.265Z,80.20
2022-08-20T18:50:15.884Z,80.50
2022-08-20T18:52:43.839Z,81.00
2022-08-20T18:55:10.579Z,81.60
2022-08-20T18:57:40.803Z,82.40
2022-08-20T19:00:12.010Z,82.70
2022-08-20T19:02:38.829Z,83.40
2022-08-20T19:05:05.562Z,83.00
2022-08-20T19:07:45.812Z,83.40
2022-08-20T19:10:27.909Z,83.50
2022-08-20T19:12:57.077Z,83.90
2022-08-20T19:15:23.942Z,84.10
2022-08-20T19:17:50.687Z,84.30
2022-08-20T19:20:17.458Z,84.50
2022-08-20T19:22:44.791Z,84.50
2022-08-20T19:25:11.543Z,85.10
2022-08-20T19:27:38.825Z,85.20
2022-08-20T19:30:05.513Z,85.60
2022-08-20T19:32:32.280Z,85.60
2022-08-20T19:34:59.020Z,85.90
2022-08-20T19:37:35.230Z,86.30
2022-08-20T19:40:11.562Z,86.60
2022-08-20T19:42:38.334Z,86.50
2022-08-20T19:45:05.483Z,87.10
2022-08-20T19:47:32.194Z,87.30
2022-08-20T19:49:58.955Z,87.10
2022-08-20T19:52:25.912Z,87.60
2022-08-20T19:54:52.657Z,88.20
2022-08-20T19:57:19.391Z,87.80
2022-08-20T19:59:46.104Z,88.10
2022-08-20T20:02:20.469Z,88.10
2022-08-20T20:04:55.098Z,88.70
2022-08-20T20:07:24.575Z,88.80
2022-08-20T20:09:51.345Z,89.00
2022-08-20T20:12:22.914Z,89.10
2022-08-20T20:14:49.918Z,89.50
2022-08-20T20:17:21.019Z,89.80
2022-08-20T20:19:49.677Z,90.10
2022-08-20T20:22:20.104Z,90.20
2022-08-20T20:24:47.196Z,90.30
2022-08-20T20:27:14.838Z,90.30
2022-08-20T20:29:52.827Z,90.40
2022-08-20T20:32:19.860Z,90.60
2022-08-20T20:34:54.891Z,90.90
2022-08-20T20:37:42.664Z,90.90
2022-08-20T20:40:12.365Z,91.30
2022-08-20T20:42:47.204Z,91.20
2022-08-20T20:45:13.951Z,91.40
2022-08-20T20:47:40.657Z,91.50
2022-08-20T20:50:07.393Z,91.60
2022-08-20T20:52:34.179Z,91.70
2022-08-20T20:55:00.898Z,92.00
2022-08-20T20:57:32.667Z,92.00
2022-08-20T21:00:05.260Z,92.30
2022-08-20T21:02:33.541Z,92.50
2022-08-20T21:05:00.325Z,92.50
2022-08-20T21:07:27.058Z,92.90
2022-08-20T21:09:54.007Z,93.00
2022-08-20T21:12:21.703Z,93.20
2022-08-20T21:14:48.417Z,93.20
2022-08-20T21:17:15.264Z,93.40
2022-08-20T21:19:45.241Z,93.60
2022-08-20T21:22:12.175Z,93.70
2022-08-20T21:24:38.853Z,94.00
2022-08-20T21:27:05.571Z,94.00
2022-08-20T21:29:33.078Z,94.30
2022-08-20T21:31:59.967Z,94.20
2022-08-20T21:34:26.661Z,94.30
2022-08-20T21:36:53.405Z,94.50
2022-08-20T21:39:21.471Z,94.60
2022-08-20T21:41:48.167Z,94.60
2022-08-20T21:44:16.408Z,94.70
2022-08-20T21:46:48.144Z,94.90
2022-08-20T21:49:15.495Z,94.90
2022-08-20T21:51:42.260Z,94.80
2022-08-20T21:54:09.015Z,95.10
2022-08-20T21:56:35.731Z,94.90
2022-08-20T21:59:04.060Z,95.20
2022-08-20T22:01:32.698Z,95.20
